Time;durP1;ratioP1;P1;durP2;ratioP2;P2;SDS_P1;SDS_P2;PMS_P1;PMS_P2;Temp;Humidity;BMP_temperature;BMP_pressure;BME280_temperature;BME280_humidity;BME280_pressure;Samples;Min_cycle;Max_cycle;Signal;HPM_P1;HPM_P2
2020/12/02 00:01:28;;;;;;;11.38;6.80;;;6.40;99.90;;;4.58;94.71;101679.03;4940533;28;20047;-38
2020/12/02 00:04:06;;;;;;;11.85;6.97;;;6.30;99.90;;;4.57;95.35;101681.91;4956134;28;20047;-38
2020/12/02 00:06:35;;;;;;;11.57;7.05;;;6.30;99.90;;;4.56;95.20;101685.63;4925832;28;20047;-38
2020/12/02 00:09:16;;;;;;;10.95;6.68;;;6.30;99.90;;;4.56;95.03;101691.88;4955732;28;20058;-38
2020/12/02 00:11:47;;;;;;;10.80;6.95;;;6.30;99.90;;;4.56;94.95;101686.47;4955659;28;20509;-38
2020/12/02 00:14:27;;;;;;;11.35;6.78;;;6.30;99.90;;;4.56;95.64;101682.91;4955458;28;20047;-38
2020/12/02 00:16:56;;;;;;;12.38;7.13;;;6.30;99.90;;;4.56;95.43;101685.63;4940199;28;20517;-38
2020/12/02 00:19:25;;;;;;;12.13;7.68;;;6.30;99.90;;;4.56;95.59;101674.81;4971624;28;20050;-38
2020/12/02 00:22:08;;;;;;;11.65;6.50;;;6.30;99.90;;;4.52;95.10;101676.13;4923956;28;20046;-38
2020/12/02 00:24:37;;;;;;;11.20;6.68;;;6.30;99.90;;;4.53;95.47;101677.81;4955442;28;20515;-38
2020/12/02 00:27:11;;;;;;;11.50;6.65;;;6.30;99.90;;;4.51;95.13;101679.78;4924515;28;20406;-38
2020/12/02 00:29:38;;;;;;;10.90;7.05;;;6.30;99.90;;;4.49;95.24;101673.69;4971601;28;20083;-38
2020/12/02 00:32:06;;;;;;;11.45;6.50;;;6.20;99.90;;;4.47;95.00;101677.41;4939870;28;20165;-38
2020/12/02 00:34:33;;;;;;;12.20;7.32;;;6.20;99.90;;;4.47;95.31;101680.09;4955306;28;20126;-38
2020/12/02 00:37:00;;;;;;;12.90;6.95;;;6.20;99.90;;;4.45;95.25;101665.06;4924197;28;20130;-38
2020/12/02 00:39:27;;;;;;;12.63;7.10;;;6.20;99.90;;;4.49;95.88;101679.97;4923996;28;20050;-38
2020/12/02 00:41:54;;;;;;;12.10;7.13;;;6.20;99.90;;;4.49;95.51;101676.41;4924196;28;20122;-38
2020/12/02 00:44:22;;;;;;;14.27;7.73;;;6.20;99.90;;;4.50;95.78;101684.38;4923565;28;20067;-37
2020/12/02 00:46:49;;;;;;;10.77;6.57;;;6.30;99.90;;;4.50;95.66;101683.50;4939707;28;21083;-38
2020/12/02 00:49:17;;;;;;;12.18;7.25;;;6.20;99.90;;;4.51;95.11;101680.66;4924206;28;20129;-38
2020/12/02 00:51:45;;;;;;;12.40;6.95;;;6.30;99.90;;;4.51;95.15;101677.97;4940149;28;20402;-38
2020/12/02 00:54:13;;;;;;;12.80;7.35;;;6.20;99.90;;;4.51;95.38;101677.09;4971377;28;20117;-38
2020/12/02 00:56:46;;;;;;;;;;;6.30;99.90;;;4.50;95.86;101675.41;4940489;28;20053;-38
2020/12/02 00:59:23;;;;;;;12.77;6.93;;;6.20;99.90;;;4.49;95.34;101676.41;4955331;28;19981;-38
2020/12/02 01:02:07;;;;;;;13.18;8.13;;;6.20;99.90;;;4.44;95.21;101671.47;4939459;28;20046;-38
2020/12/02 01:04:40;;;;;;;13.70;7.60;;;6.20;99.90;;;4.43;95.59;101678.72;4971054;28;20043;-38
2020/12/02 01:07:08;;;;;;;12.60;7.47;;;6.20;99.90;;;4.44;95.15;101680.41;4924462;28;20101;-38
2020/12/02 01:09:36;;;;;;;12.35;7.05;;;6.20;99.90;;;4.43;95.93;101676.00;4955265;28;20055;-38
2020/12/02 01:12:04;;;;;;;;;;;6.20;99.90;;;4.44;95.27;101680.41;4955846;28;20046;-38
2020/12/02 01:14:32;;;;;;;12.30;7.25;;;6.20;99.90;;;4.44;95.40;101672.31;4939370;28;20004;-38
2020/12/02 01:17:02;;;;;;;11.68;6.53;;;6.20;99.90;;;4.43;95.25;101678.72;4955204;28;20416;-38
2020/12/02 01:19:34;;;;;;;14.13;6.75;;;6.20;99.90;;;4.42;95.76;101671.59;4971122;28;20111;-38
2020/12/02 01:22:15;;;;;;;12.43;7.20;;;6.20;99.90;;;4.44;95.38;101674.16;4971109;28;20130;-38
2020/12/02 01:25:05;;;;;;;10.18;6.72;;;6.20;99.90;;;4.44;95.72;101668.75;4954959;28;20133;-38
2020/12/02 01:28:01;;;;;;;11.55;6.40;;;6.20;99.90;;;4.44;95.69;101671.47;4971274;28;20039;-38
2020/12/02 01:30:30;;;;;;;10.48;6.40;;;6.20;99.90;;;4.43;95.54;101670.59;4939245;28;20421;-38
2020/12/02 01:32:58;;;;;;;11.90;7.55;;;6.20;99.90;;;4.42;95.60;101665.38;4923659;28;20075;-38
2020/12/02 01:35:29;;;;;;;12.68;6.93;;;6.20;99.90;;;4.40;95.11;101662.81;4907744;28;20130;-38
2020/12/02 01:38:05;;;;;;;11.38;6.35;;;6.20;99.90;;;4.37;95.81;101663.09;4939123;28;20109;-38
2020/12/02 01:40:35;;;;;;;13.00;7.03;;;6.10;99.90;;;4.35;94.99;101664.25;4955086;28;20051;-38
2020/12/02 01:43:11;;;;;;;12.55;7.00;;;6.10;99.90;;;4.32;95.55;101673.53;4923589;28;20074;-38
2020/12/02 01:45:45;;;;;;;11.82;7.05;;;6.10;99.90;;;4.30;95.38;101667.41;4959057;28;20078;-38
2020/12/02 01:48:23;;;;;;;12.55;6.70;;;6.10;99.90;;;4.29;95.80;101671.97;4974336;28;20053;-38
2020/12/02 01:51:21;;;;;;;;;;;6.10;99.90;;;4.29;95.25;101669.25;4975144;28;20076;-38
2020/12/02 01:54:10;;;;;;;10.75;6.00;;;6.00;99.90;;;4.30;95.52;101672.81;4928994;28;19972;-38
2020/12/02 01:56:42;;;;;;;12.98;7.32;;;6.00;99.90;;;4.31;95.99;101669.94;4958155;28;20082;-38
2020/12/02 01:59:30;;;;;;;11.95;6.70;;;6.10;99.90;;;4.31;95.57;101663.72;4958064;28;20094;-38
2020/12/02 02:02:17;;;;;;;12.38;6.95;;;6.10;99.90;;;4.33;95.39;101661.72;4960043;28;20136;-38
2020/12/02 02:05:01;;;;;;;12.18;7.38;;;6.10;99.90;;;4.34;95.38;101668.81;4957749;28;20047;-38
2020/12/02 02:07:31;;;;;;;11.65;6.97;;;6.10;99.90;;;4.35;95.23;101669.66;4928837;28;20047;-38
2020/12/02 02:10:11;;;;;;;13.68;7.45;;;6.10;99.90;;;4.34;95.62;101670.66;4941981;28;20129;-38
2020/12/02 02:12:49;;;;;;;13.70;7.45;;;6.10;99.90;;;4.33;95.21;101667.13;4957921;28;20051;-38
2020/12/02 02:15:39;;;;;;;12.77;7.28;;;6.10;99.90;;;4.33;96.03;101667.13;4926089;28;20093;-38
2020/12/02 02:18:22;;;;;;;11.95;6.85;;;6.10;99.90;;;4.36;96.01;101666.81;4942036;28;20137;-38
2020/12/02 02:21:00;;;;;;;12.63;7.05;;;6.10;99.90;;;4.35;95.70;101665.13;4957746;28;20561;-38
2020/12/02 02:23:28;;;;;;;11.23;6.90;;;6.10;99.90;;;4.36;95.91;101663.25;4973565;28;20043;-38
2020/12/02 02:26:05;;;;;;;;;;;6.10;99.90;;;4.37;95.86;101660.41;4911078;28;20448;-38
2020/12/02 02:28:38;;;;;;;12.27;6.70;;;6.10;99.90;;;4.37;96.12;101652.28;4957757;28;20455;-38
2020/12/02 02:31:13;;;;;;;13.38;7.03;;;6.10;99.90;;;4.38;95.99;101662.09;4926367;28;20058;-38
2020/12/02 02:33:41;;;;;;;11.05;6.25;;;6.10;99.90;;;4.38;95.37;101658.56;4973237;28;20046;-37
2020/12/02 02:36:13;;;;;;;12.20;7.45;;;6.10;99.90;;;4.36;95.95;101650.59;4925839;28;20039;-38
2020/12/02 02:38:41;;;;;;;14.00;8.18;;;6.10;99.90;;;4.39;95.76;101654.88;4957889;28;20449;-38
2020/12/02 02:41:10;;;;;;;14.15;7.47;;;6.10;99.90;;;4.38;95.39;101656.69;4941927;28;20473;-38
2020/12/02 02:43:39;;;;;;;13.23;6.85;;;6.10;99.90;;;4.40;96.00;101653.84;4941359;28;20074;-38
2020/12/02 02:46:08;;;;;;;12.05;7.40;;;6.10;99.90;;;4.38;95.81;101654.00;4941318;28;20046;-38
2020/12/02 02:48:35;;;;;;;11.90;7.07;;;6.10;99.90;;;4.39;96.06;101654.88;4941429;28;20062;-38
2020/12/02 02:51:04;;;;;;;15.48;8.15;;;6.10;99.90;;;4.39;95.51;101650.28;4925860;28;20050;-38
2020/12/02 02:53:33;;;;;;;16.10;8.82;;;6.10;99.90;;;4.37;95.66;101649.59;4941061;28;20130;-38
2020/12/02 02:56:00;;;;;;;;;;;6.10;99.90;;;4.37;95.44;101649.59;4941844;28;20070;-38
2020/12/02 02:58:29;;;;;;;14.75;8.30;;;6.10;99.90;;;4.38;95.82;101648.59;4941356;28;19929;-38
2020/12/02 03:01:01;;;;;;;13.93;7.72;;;6.10;99.90;;;4.39;96.16;101653.00;4956977;28;20054;-38
2020/12/02 03:03:31;;;;;;;15.00;7.72;;;6.10;99.90;;;4.39;96.38;101650.28;4956767;28;20129;-37
2020/12/02 03:06:03;;;;;;;13.88;7.82;;;6.10;99.90;;;4.40;95.95;101648.47;4941500;28;20098;-38
2020/12/02 03:08:32;;;;;;;14.13;8.63;;;6.20;99.90;;;4.39;95.98;101654.88;4957040;28;20469;-38
2020/12/02 03:11:04;;;;;;;14.48;8.32;;;6.10;99.90;;;4.39;96.32;101653.00;4956891;28;20073;-38
2020/12/02 03:13:45;;;;;;;14.77;8.35;;;6.10;99.90;;;4.40;95.68;101649.28;4972609;28;20591;-38
2020/12/02 03:16:35;;;;;;;13.00;7.90;;;6.10;99.90;;;4.40;95.93;101654.69;4972694;28;20053;-38
2020/12/02 03:19:26;;;;;;;12.60;7.72;;;6.10;99.90;;;4.40;96.53;101645.75;4940777;28;20402;-38
2020/12/02 03:22:02;;;;;;;14.25;8.73;;;6.10;99.90;;;4.40;96.02;101646.59;4956868;28;20054;-38
2020/12/02 03:24:30;;;;;;;16.90;9.60;;;6.10;99.90;;;4.40;96.63;101645.75;4940655;28;20406;-38
2020/12/02 03:26:58;;;;;;;13.82;7.57;;;6.20;99.90;;;4.40;96.29;101641.19;4956513;28;20035;-38
2020/12/02 03:29:25;;;;;;;;;;;6.20;99.90;;;4.37;96.45;101630.69;4941533;28;20042;-38
2020/12/02 03:31:53;;;;;;;11.98;6.93;;;6.20;99.90;;;4.41;95.66;101642.03;4909196;28;19922;-38
2020/12/02 03:34:21;;;;;;;14.30;8.32;;;6.20;99.90;;;4.40;95.71;101633.06;4940310;28;20126;-38
2020/12/02 03:36:49;;;;;;;14.35;8.57;;;6.20;99.90;;;4.42;96.07;101635.63;4940537;28;20401;-38
2020/12/02 03:39:18;;;;;;;16.00;8.82;;;6.20;99.90;;;4.42;96.36;101632.94;4925030;28;20073;-38
2020/12/02 03:41:46;;;;;;;16.20;8.73;;;6.20;99.90;;;4.42;96.05;101633.78;4940395;28;20077;-38
2020/12/02 03:44:13;;;;;;;14.82;8.55;;;6.20;99.90;;;4.43;96.13;101640.88;4940165;28;20042;-38
2020/12/02 03:46:42;;;;;;;17.40;9.40;;;6.20;99.90;;;4.43;96.10;101638.19;4940598;28;20412;-38
2020/12/02 03:49:10;;;;;;;17.17;8.95;;;6.20;99.90;;;4.44;95.82;101633.63;4956192;28;20453;-38
2020/12/02 03:51:38;;;;;;;16.45;9.73;;;6.20;99.90;;;4.43;95.87;101640.03;4924664;28;20042;-38
2020/12/02 03:54:06;;;;;;;15.98;9.20;;;6.20;99.90;;;4.42;96.64;101632.94;4955840;28;20055;-38
2020/12/02 03:56:33;;;;;;;;;;;6.20;99.90;;;4.42;96.32;101630.22;4972519;28;20049;-38
2020/12/02 03:59:00;;;;;;;14.27;8.13;;;6.20;99.90;;;4.42;95.85;101633.78;4940212;28;19922;-38
2020/12/02 04:01:28;;;;;;;15.15;8.52;;;6.20;99.90;;;4.42;96.67;101628.38;4940270;28;20109;-38
2020/12/02 04:03:55;;;;;;;14.68;8.32;;;6.20;99.90;;;4.42;95.94;101631.06;4924090;28;20155;-38
2020/12/02 04:06:23;;;;;;;15.60;8.40;;;6.20;99.90;;;4.41;96.14;101626.66;4923761;28;20137;-38
2020/12/02 04:08:51;;;;;;;17.80;9.18;;;6.20;99.90;;;4.42;96.02;101620.25;4956015;28;20061;-38
2020/12/02 04:11:20;;;;;;;13.23;7.97;;;6.20;99.90;;;4.41;96.71;101615.84;4939854;28;20054;-37
2020/12/02 04:13:47;;;;;;;15.45;7.78;;;6.10;99.90;;;4.42;96.58;101620.25;4956034;28;20051;-38
2020/12/02 04:16:15;;;;;;;15.05;8.68;;;6.20;99.90;;;4.42;96.68;101616.72;4924349;28;20042;-38
2020/12/02 04:18:43;;;;;;;16.40;8.57;;;6.10;99.90;;;4.41;96.43;101613.16;4924662;28;20043;-38
2020/12/02 04:21:10;;;;;;;13.73;7.60;;;6.20;99.90;;;4.43;96.06;101618.44;4955722;28;20051;-38
2020/12/02 04:23:37;;;;;;;14.93;7.50;;;6.20;99.90;;;4.43;96.05;101613.84;4939804;28;20536;-38
2020/12/02 04:26:05;;;;;;;16.27;8.30;;;6.20;99.90;;;4.42;95.94;101611.31;4955974;28;20066;-38
2020/12/02 04:28:33;;;;;;;14.48;8.20;;;6.20;99.90;;;4.43;96.00;101608.44;4939765;28;20130;-38
2020/12/02 04:31:00;;;;;;;15.68;7.60;;;6.20;99.90;;;4.41;96.34;101609.63;4924369;28;20509;-38
2020/12/02 04:33:27;;;;;;;14.35;7.72;;;6.20;99.90;;;4.43;95.97;101608.44;4923954;28;20047;-38
2020/12/02 04:35:54;;;;;;;12.45;6.53;;;6.20;99.90;;;4.43;95.96;101604.91;5013065;23;20507;-41
2020/12/02 04:38:21;;;;;;;14.70;7.73;;;6.20;99.90;;;4.44;96.54;101612.03;5021958;28;20048;-41
2020/12/02 04:40:49;;;;;;;14.27;7.22;;;6.20;99.90;;;4.43;96.27;101607.63;4997579;28;20095;-41
2020/12/02 04:43:32;;;;;;;14.35;7.80;;;6.20;99.90;;;4.42;95.96;101605.91;5013680;28;20037;-41
2020/12/02 04:45:59;;;;;;;15.65;8.10;;;6.20;99.90;;;4.41;95.92;101602.34;4999818;28;20050;-41
2020/12/02 04:48:31;;;;;;;15.13;8.13;;;6.20;99.90;;;4.41;96.43;101604.22;4994483;28;20038;-41
2020/12/02 04:51:12;;;;;;;12.23;6.65;;;6.20;99.90;;;4.42;96.37;101605.91;4978088;28;20052;-41
2020/12/02 04:53:45;;;;;;;14.32;7.60;;;6.20;99.90;;;4.42;96.19;101609.44;5010182;28;20078;-41
2020/12/02 04:56:12;;;;;;;13.00;7.22;;;6.20;99.90;;;4.43;96.43;101604.91;4993928;28;20046;-41
2020/12/02 04:58:41;;;;;;;13.52;7.57;;;6.20;99.90;;;4.43;96.70;101607.63;5010432;28;20125;-41
2020/12/02 05:01:30;;;;;;;14.82;7.65;;;6.20;99.90;;;4.43;96.17;101608.44;5010344;28;20100;-41
2020/12/02 05:04:03;;;;;;;15.35;7.97;;;6.20;99.90;;;4.43;96.83;101608.44;5010057;28;20045;-41
2020/12/02 05:06:44;;;;;;;13.70;7.15;;;6.20;99.90;;;4.43;96.90;101615.72;5010214;28;20463;-41
2020/12/02 05:09:26;;;;;;;15.43;7.47;;;6.20;99.90;;;4.45;96.52;101611.84;5010219;28;20049;-41
2020/12/02 05:12:16;;;;;;;16.65;7.93;;;6.20;99.90;;;4.45;96.15;101611.00;4994945;28;20397;-41
2020/12/02 05:14:46;;;;;;;16.42;8.05;;;6.20;99.90;;;4.44;95.96;101609.31;4980308;28;20057;-41
2020/12/02 05:17:17;;;;;;;17.85;8.45;;;6.20;99.90;;;4.43;96.03;101610.31;4994527;28;20137;-41
2020/12/02 05:20:02;;;;;;;18.67;8.40;;;6.20;99.90;;;4.43;96.26;101610.31;4997807;28;20137;-41
2020/12/02 05:22:37;;;;;;;17.02;7.93;;;6.20;99.90;;;4.44;96.44;101607.44;5015078;28;20065;-41
2020/12/02 05:25:15;;;;;;;18.02;9.90;;;6.20;99.90;;;4.44;96.55;101604.75;5013555;28;20065;-41
2020/12/02 05:27:51;;;;;;;19.88;9.27;;;6.20;99.90;;;4.47;96.11;101609.00;4998649;28;20062;-41
2020/12/02 05:30:23;;;;;;;18.23;9.10;;;6.20;99.90;;;4.45;96.23;101609.16;4950027;28;20053;-41
2020/12/02 05:33:12;;;;;;;15.50;7.70;;;6.20;99.90;;;4.47;96.36;101609.84;4982153;28;20427;-41
2020/12/02 05:35:53;;;;;;;17.57;9.43;;;6.20;99.90;;;4.48;95.85;101597.19;4980955;28;20050;-41
2020/12/02 05:38:36;;;;;;;21.95;9.43;;;6.20;99.90;;;4.55;95.77;101600.97;4981043;28;20101;-41
2020/12/02 05:41:12;;;;;;;20.77;9.52;;;6.20;99.90;;;4.54;95.47;101596.56;4999257;28;20461;-41
2020/12/02 05:43:47;;;;;;;19.15;9.60;;;6.30;99.90;;;4.52;95.42;101595.03;5013214;28;20088;-41
2020/12/02 05:46:44;;;;;;;20.48;9.68;;;6.30;99.90;;;4.51;95.68;101596.88;5013666;28;20408;-41
2020/12/02 05:49:47;;;;;;;18.92;8.90;;;6.20;99.90;;;4.45;95.65;101590.22;5013353;28;20121;-41
2020/12/02 05:52:38;;;;;;;21.50;9.85;;;6.20;99.90;;;4.42;95.01;101593.25;5013458;28;20117;-41
2020/12/02 05:55:21;;;;;;;19.55;9.43;;;6.20;99.90;;;4.37;95.48;101589.28;5013019;28;20069;-41
2020/12/02 05:58:04;;;;;;;17.90;9.15;;;6.10;99.90;;;4.31;94.69;101582.66;5014466;28;20496;-41
2020/12/02 06:00:33;;;;;;;17.00;8.43;;;6.10;99.90;;;4.31;94.73;101590.78;5014525;28;20453;-41
2020/12/02 06:03:02;;;;;;;15.45;8.32;;;6.10;99.90;;;4.28;94.32;101591.91;5014271;28;20046;-41
2020/12/02 06:05:31;;;;;;;18.30;8.75;;;6.00;99.90;;;4.26;95.28;101585.81;5014239;28;20048;-41
2020/12/02 06:08:05;;;;;;;17.85;8.65;;;6.00;99.90;;;4.25;95.46;101588.69;5014422;28;20045;-41
2020/12/02 06:10:47;;;;;;;13.98;7.68;;;6.00;99.90;;;4.22;94.99;101586.25;5013041;28;20580;-41
2020/12/02 06:13:46;;;;;;;14.63;7.22;;;6.00;99.90;;;4.18;95.51;101589.28;4981769;28;20484;-41
2020/12/02 06:16:27;;;;;;;19.05;8.13;;;5.90;99.90;;;4.15;95.69;101594.13;5014003;28;20103;-41
2020/12/02 06:19:02;;;;;;;18.10;8.75;;;5.90;99.90;;;4.13;94.74;101594.28;5012887;28;20073;-41
2020/12/02 06:21:58;;;;;;;16.88;8.40;;;5.90;99.90;;;4.13;95.17;101588.03;5012818;28;20060;-41
2020/12/02 06:24:47;;;;;;;16.50;8.05;;;5.90;99.90;;;4.12;95.53;101586.34;4996201;28;20042;-41
2020/12/02 06:27:15;;;;;;;19.02;8.82;;;5.90;99.90;;;4.11;94.66;101576.50;5014075;28;20053;-41
2020/12/02 06:30:12;;;;;;;15.25;7.85;;;5.80;99.90;;;4.10;94.92;101582.91;5012162;28;20041;-41
2020/12/02 06:32:56;;;;;;;18.52;8.20;;;5.90;99.90;;;4.10;95.36;101572.97;5012812;28;20132;-41
2020/12/02 06:35:23;;;;;;;16.63;7.55;;;5.90;99.90;;;4.09;95.54;101579.38;5012134;28;20104;-41
2020/12/02 06:38:12;;;;;;;16.00;7.72;;;5.90;99.90;;;4.09;94.96;101576.69;5013683;28;20056;-41
2020/12/02 06:41:00;;;;;;;16.73;9.30;;;5.80;99.90;;;4.09;94.88;101578.50;5013916;28;20053;-41
2020/12/02 06:43:52;;;;;;;16.60;8.18;;;5.80;99.90;;;4.09;95.79;101590.19;5013443;28;20069;-41
2020/12/02 06:46:49;;;;;;;15.90;8.30;;;5.90;99.90;;;4.11;95.56;101587.31;5012359;28;20044;-41
2020/12/02 06:49:16;;;;;;;16.30;8.40;;;5.80;99.90;;;4.10;94.92;101588.31;5013700;28;20478;-41
2020/12/02 06:52:03;;;;;;;;;;;5.80;99.90;;;4.09;95.36;101584.78;5013027;28;20042;-41
2020/12/02 06:54:36;;;;;;;21.65;9.35;;;5.80;99.90;;;4.08;95.63;101588.47;5013032;28;19925;-41
2020/12/02 06:57:18;;;;;;;16.33;8.07;;;5.80;99.90;;;4.09;95.29;101579.38;4996236;28;20042;-40
2020/12/02 06:59:58;;;;;;;17.63;8.80;;;5.80;99.90;;;4.09;95.03;101578.50;5012149;28;20125;-41
2020/12/02 07:02:36;;;;;;;17.13;8.38;;;5.80;99.90;;;4.11;95.48;101580.06;5013173;28;20121;-41
2020/12/02 07:05:12;;;;;;;19.08;8.20;;;5.90;99.90;;;4.10;95.05;101578.38;5012987;28;20049;-41
2020/12/02 07:07:41;;;;;;;16.25;7.80;;;5.90;99.90;;;4.09;95.16;101573.97;5011880;28;20049;-41
2020/12/02 07:10:20;;;;;;;18.08;8.38;;;5.80;99.90;;;4.10;95.43;101572.97;4963866;28;20049;-41
2020/12/02 07:12:54;;;;;;;17.08;8.38;;;5.90;99.90;;;4.13;95.13;101574.53;5012821;28;20042;-41
2020/12/02 07:15:24;;;;;;;16.50;8.23;;;5.90;99.90;;;4.10;95.18;101570.28;5011588;28;20042;-41
2020/12/02 07:17:52;;;;;;;19.45;8.90;;;5.90;99.90;;;4.11;95.85;101571.09;5012964;28;20599;-41
2020/12/02 07:20:20;;;;;;;18.92;8.32;;;5.80;99.90;;;4.12;94.98;101576.38;5011668;28;20064;-41
2020/12/02 07:22:52;;;;;;;;;;;5.90;99.90;;;4.12;95.32;101578.25;4995904;28;20038;-41
2020/12/02 07:25:23;;;;;;;16.58;7.97;;;5.90;99.90;;;4.11;94.91;101571.97;5027791;28;20012;-41
2020/12/02 07:27:51;;;;;;;17.77;8.38;;;5.90;99.90;;;4.07;95.31;101570.59;5011518;28;20420;-41
2020/12/02 07:30:38;;;;;;;16.50;7.80;;;5.80;99.90;;;4.08;95.37;101572.28;4979601;28;20389;-41
2020/12/02 07:33:29;;;;;;;16.10;8.00;;;5.80;99.90;;;4.08;95.04;101576.81;5012882;28;20038;-41
2020/12/02 07:36:18;;;;;;;15.98;8.02;;;5.80;99.90;;;4.08;95.79;101569.59;5011250;28;20073;-41
2020/12/02 07:38:46;;;;;;;16.25;7.63;;;5.80;99.90;;;4.05;95.50;101567.19;5012834;28;20124;-41
2020/12/02 07:41:19;;;;;;;14.83;7.57;;;5.80;99.90;;;4.06;95.45;101568.03;4978380;28;20033;-41
2020/12/02 07:43:50;;;;;;;15.57;7.60;;;5.80;99.90;;;4.03;95.21;101567.31;5012309;28;20897;-41
2020/12/02 07:46:21;;;;;;;15.15;7.30;;;5.80;99.90;;;4.06;94.92;101565.31;5011204;28;20532;-41
2020/12/02 07:48:56;;;;;;;17.42;7.70;;;5.80;99.90;;;4.04;95.51;101565.50;5011149;28;20500;-41
2020/12/02 07:51:34;;;;;;;15.85;7.28;;;5.80;99.90;;;4.03;94.61;101564.63;5011124;28;20046;-41
2020/12/02 07:54:19;;;;;;;16.70;8.13;;;5.80;99.90;;;4.02;94.80;101562.09;4995234;28;20050;-41
2020/12/02 07:56:50;;;;;;;15.10;7.70;;;5.80;99.90;;;4.03;95.16;101564.63;5012303;28;20069;-41
2020/12/02 07:59:25;;;;;;;15.90;8.02;;;5.80;99.90;;;4.03;95.15;101567.31;5012619;28;20053;-41
2020/12/02 08:02:15;;;;;;;15.55;7.50;;;5.80;99.90;;;4.03;94.80;101566.50;5011164;28;20413;-41
2020/12/02 08:04:55;;;;;;;13.88;7.13;;;5.80;99.90;;;4.05;94.14;101560.91;5011802;28;20042;-41
2020/12/02 08:07:43;;;;;;;13.93;7.60;;;5.80;99.90;;;4.06;94.28;101565.31;5012164;28;20461;-41
2020/12/02 08:10:23;;;;;;;15.45;8.25;;;5.80;99.90;;;4.07;95.04;101569.72;5012278;28;20050;-41
2020/12/02 08:12:51;;;;;;;20.17;8.13;;;5.80;99.90;;;4.02;94.66;101567.50;5010439;28;20432;-41
2020/12/02 08:15:18;;;;;;;15.65;8.00;;;5.80;99.90;;;4.02;94.42;101564.78;5010545;28;20481;-41
2020/12/02 08:18:14;;;;;;;16.67;8.35;;;5.80;99.90;;;4.03;94.48;101567.31;5011059;28;20048;-41
2020/12/02 08:20:44;;;;;;;16.10;8.57;;;5.80;99.90;;;4.03;94.03;101574.59;5010760;28;20046;-41
2020/12/02 08:23:26;;;;;;;17.58;8.95;;;5.80;99.90;;;4.02;94.46;101570.19;5010616;28;20443;-41
2020/12/02 08:26:00;;;;;;;16.02;8.20;;;5.80;99.90;;;4.02;94.11;101567.50;5011755;28;20038;-41
2020/12/02 08:28:37;;;;;;;17.73;8.77;;;5.70;99.90;;;3.97;93.81;101567.06;5012118;28;20065;-41
2020/12/02 08:31:20;;;;;;;17.98;7.80;;;5.70;99.90;;;3.97;94.15;101558.97;4994483;28;20538;-41
2020/12/02 08:34:17;;;;;;;18.23;8.35;;;5.70;99.90;;;4.02;94.12;101559.38;5011553;28;20141;-41
2020/12/02 08:36:50;;;;;;;16.92;8.50;;;5.70;99.90;;;4.04;94.35;101557.38;5011665;28;20060;-41
2020/12/02 08:39:29;;;;;;;17.55;8.32;;;5.80;99.90;;;4.01;94.30;101558.53;4994527;28;20056;-41
2020/12/02 08:41:56;;;;;;;17.83;8.30;;;5.80;99.90;;;4.06;94.03;101563.47;4994356;28;20100;-41
2020/12/02 08:44:24;;;;;;;16.50;8.53;;;5.80;99.90;;;4.07;93.34;101559.78;5010214;28;20088;-41
2020/12/02 08:47:09;;;;;;;17.67;8.93;;;5.80;99.90;;;4.08;93.71;101560.63;4994254;28;20431;-41
2020/12/02 08:49:37;;;;;;;20.13;9.25;;;5.80;99.90;;;4.09;93.32;101557.78;5011819;28;20066;-41
2020/12/02 08:52:07;;;;;;;16.95;9.32;;;5.80;99.90;;;4.04;93.99;101549.28;5010567;28;20515;-41
2020/12/02 08:54:35;;;;;;;15.18;8.20;;;5.80;99.90;;;4.05;93.37;101553.69;4998177;28;20046;-41
2020/12/02 08:57:07;;;;;;;16.50;8.27;;;5.80;99.90;;;4.07;93.91;101548.13;5015494;28;20053;-41
2020/12/02 08:59:35;;;;;;;16.45;8.10;;;5.80;99.90;;;4.12;93.49;101540.44;5015823;28;20061;-41
2020/12/02 09:02:09;;;;;;;14.95;8.07;;;5.80;99.90;;;4.09;93.02;101538.88;5015722;28;20441;-41
2020/12/02 09:04:36;;;;;;;14.63;7.65;;;5.80;99.90;;;4.07;93.43;101540.88;5013930;28;20065;-41
2020/12/02 09:07:03;;;;;;;17.17;7.53;;;5.80;99.90;;;4.05;93.10;101545.59;4998218;28;20053;-41
2020/12/02 09:09:30;;;;;;;13.30;6.68;;;5.80;99.90;;;4.03;93.45;101536.78;5014160;28;20062;-41
2020/12/02 09:11:57;;;;;;;15.03;7.20;;;5.80;99.90;;;4.02;93.51;101535.09;5013912;28;20038;-41
2020/12/02 09:14:27;;;;;;;16.90;8.20;;;5.80;99.90;;;4.01;93.13;101525.28;5014017;28;20069;-41
2020/12/02 09:16:54;;;;;;;13.73;7.40;;;5.80;99.90;;;4.02;93.36;101532.38;5013918;28;20467;-41
2020/12/02 09:19:21;;;;;;;15.88;7.45;;;5.70;99.90;;;4.00;93.26;101532.53;5013917;28;20046;-41
2020/12/02 09:21:48;;;;;;;11.52;6.30;;;5.70;99.90;;;3.99;93.38;101528.13;4965525;28;20571;-41
2020/12/02 09:24:17;;;;;;;13.77;7.53;;;5.70;99.90;;;3.97;93.40;101531.97;4997530;28;20069;-41
2020/12/02 09:26:45;;;;;;;17.25;7.70;;;5.70;99.90;;;4.01;93.53;101528.81;5013968;28;20524;-41
2020/12/02 09:29:15;;;;;;;12.95;7.07;;;5.70;99.90;;;3.99;93.23;101521.91;4997640;28;20117;-41
2020/12/02 09:31:43;;;;;;;13.07;7.60;;;5.70;99.90;;;3.94;92.86;101514.25;5015007;28;20325;-41
2020/12/02 09:34:11;;;;;;;16.10;7.93;;;5.70;99.90;;;3.85;92.19;101516.00;5013350;28;20505;-41
2020/12/02 09:36:38;;;;;;;14.57;7.68;;;5.60;99.90;;;3.83;92.13;101518.00;4997460;28;20152;-41
2020/12/02 09:39:07;;;;;;;12.15;6.97;;;5.60;99.90;;;3.81;92.87;101514.59;4997385;28;20424;-41
2020/12/02 09:42:05;;;;;;;12.82;7.43;;;5.60;99.90;;;3.82;92.70;101507.34;5013575;28;20527;-41
2020/12/02 09:44:56;;;;;;;13.10;6.93;;;5.60;99.90;;;3.82;93.35;101501.94;5014275;28;20049;-41
2020/12/02 09:47:23;;;;;;;12.98;7.05;;;5.60;99.90;;;3.80;92.23;101503.94;5014863;28;20048;-41
2020/12/02 09:49:50;;;;;;;12.32;7.05;;;5.60;99.90;;;3.83;92.39;101504.50;4997175;28;20131;-41
2020/12/02 09:52:37;;;;;;;9.93;5.90;;;5.60;99.90;;;3.87;92.71;101497.78;4997264;28;20041;-41
2020/12/02 09:55:15;;;;;;;10.60;5.47;;;5.60;99.90;;;3.85;91.99;101497.09;5014251;28;20505;-43
2020/12/02 09:57:43;;;;;;;9.70;5.95;;;5.60;99.90;;;3.80;92.09;101482.34;5013179;28;20483;-41
2020/12/02 10:00:13;;;;;;;10.35;5.18;;;5.60;99.90;;;3.83;92.24;101487.44;5013388;28;20460;-42
2020/12/02 10:03:10;;;;;;;8.15;4.82;;;5.60;99.90;;;3.88;91.73;101485.16;5013127;28;20045;-41
2020/12/02 10:06:00;;;;;;;9.00;5.18;;;5.60;99.90;;;3.82;91.27;101489.31;5011813;28;20038;-41
2020/12/02 10:08:56;;;;;;;8.65;4.95;;;5.60;99.90;;;3.82;92.35;101489.31;5014374;28;20053;-41
2020/12/02 10:11:45;;;;;;;9.27;5.15;;;5.60;99.90;;;3.86;92.27;101481.75;5012740;28;20064;-41
2020/12/02 10:14:40;;;;;;;10.30;5.88;;;5.60;99.90;;;3.81;92.08;101484.91;5012755;28;20515;-41
2020/12/02 10:17:25;;;;;;;13.55;6.30;;;5.60;99.90;;;3.82;92.31;101478.50;5012939;28;20052;-41
2020/12/02 10:20:18;;;;;;;11.90;6.30;;;5.60;99.90;;;3.83;91.83;101471.25;5014302;28;20069;-41
2020/12/02 10:23:02;;;;;;;13.30;7.80;;;5.60;99.90;;;3.82;92.07;101465.00;5012664;28;20072;-41
2020/12/02 10:25:51;;;;;;;13.20;7.18;;;5.60;99.90;;;3.84;91.29;101467.53;5013878;28;20052;-41
2020/12/02 10:28:38;;;;;;;14.85;8.02;;;5.60;99.90;;;3.82;91.35;101458.75;5014208;28;20046;-41
2020/12/02 10:31:32;;;;;;;13.60;7.75;;;5.60;99.90;;;3.77;91.93;101453.81;5013956;28;20459;-41
2020/12/02 10:34:25;;;;;;;14.00;8.13;;;5.50;99.90;;;3.82;91.64;101451.50;5013491;28;20097;-41
2020/12/02 10:37:04;;;;;;;17.45;9.27;;;5.50;99.90;;;3.82;91.37;101450.66;5003270;28;20104;-41
2020/12/02 10:39:33;;;;;;;17.35;9.07;;;5.50;99.90;;;3.81;91.34;101441.72;5012749;28;20077;-41
2020/12/02 10:42:18;;;;;;;;;;;5.60;99.90;;;3.78;91.82;101438.47;5012983;28;20129;-41
2020/12/02 10:45:14;;;;;;;16.35;8.38;;;5.50;99.90;;;3.71;91.98;101420.19;5013467;28;19936;-41
2020/12/02 10:47:59;;;;;;;16.05;8.65;;;5.50;99.90;;;3.81;91.84;101420.13;5013707;28;20100;-41
2020/12/02 10:50:32;;;;;;;15.60;8.27;;;5.50;99.90;;;3.80;91.76;101414.84;5012292;28;20042;-41
2020/12/02 10:53:06;;;;;;;14.82;8.43;;;5.60;99.90;;;3.79;91.27;101419.44;5012154;28;20070;-41
2020/12/02 10:55:36;;;;;;;16.75;9.10;;;5.60;99.90;;;3.78;91.01;101417.72;5012174;28;20125;-41
2020/12/02 10:58:21;;;;;;;17.17;8.88;;;5.50;99.90;;;3.74;91.26;101421.75;5013432;28;20046;-41